AirNav   Airventure
 
 270 users online  

3TE2 Texas Commerce Bank Building Heliport
Houston, Texas, USA

GOING TO HOUSTON?


FAA INFORMATION EFFECTIVE 20 JULY 2017

Location

FAA Identifier: 3TE2
Lat/Long: 29-45-31.8210N / 095-21-49.7770W
29-45.530350N / 095-21.829617W
29.7588392 / -95.3638269
(estimated)
Elevation: 458 ft. / 140 m (estimated)
Variation: 06E (1985)
From city: 13 miles N of HOUSTON, TX
Time zone: UTC -5 (UTC -6 during Standard Time)
Zip code: 77002

Heliport Operations

Heliport use: Private use. Permission required prior to landing
Activation date: 05/1974
Control tower: no
ARTCC: HOUSTON CENTER
FSS: MONTGOMERY COUNTY FLIGHT SERVICE STATION
FOR FP FILING CALL CXO FSS 1-800-833-5602.
Attendance: UNATNDD
Wind indicator: no
Segmented circle: yes

Heliport Communications

WX ASOS at HOU (8 nm SE): PHONE 713-847-1462
WX ASOS at IAH (14 nm N): PHONE 281-443-6397
WX ASOS at LVJ (16 nm SE): 118.525 (281-992-1853)
WX AWOS-3 at AXH (16 nm S): 123.625 (281-431-6572)
WX ASOS at SGR (17 nm SW): 118.125 (281-242-7605)

Nearby radio navigation aids

VOR radial/distance  VOR name  Freq  Var
HUBr319/7.7HOBBY VOR/DME117.1005E
IAHr180/11.9HUMBLE VORTAC116.6005E
MHFr285/34.6TRINITY VOR/DME113.6007E
VUHr313/39.2SCHOLES VOR/DME113.0006E

 
NDB name  Hdg/Dist  Freq  Var  ID
NIXIN204/16.132605EBVP -... ...- .--.
SANJAC284/16.334705EJPA .--- .--. .-

Heliport Services

Runway Information

Helipad H1

Dimensions: 30 x 25 ft. / 9 x 8 m
Surface: wood
Traffic pattern: leftleft

Heliport Ownership and Management from official FAA records

Ownership: Privately-owned
Owner: TEXAS COMMERCE BANK
P.O. BOX 2558
HOUSTON, TX 77001
Phone 713-236-5536
Manager: SCOTT DENNIS
712 MAIN, SUITE 1100
HOUSTON, TX 77002
Phone 713-236-5536

Instrument Procedures

There are no published instrument procedures at 3TE2.

Some nearby airports with instrument procedures:

KHOU - William P Hobby Airport (8 nm SE)
KIAH - George Bush Intercontinental/Houston Airport (14 nm N)
KEFD - Ellington Airport (14 nm SE)
KLVJ - Pearland Regional Airport (16 nm SE)
KAXH - Houston Southwest Airport (16 nm S)
KIWS - West Houston Airport (16 nm W)
T41 - La Porte Municipal Airport (17 nm E)
KSGR - Sugar Land Regional Airport (17 nm SW)
 
Loc | Ops | Rwys | IFR | FBO | Links
Com | Nav | Svcs | Stats | Notes


 
Area around 3TE2 (Texas Commerce Bank Building Heliport)
 
Road maps at: MapQuest Bing Google
 
Aerial photo
No photo
 
Sectional chart

 
Airport distance calculator
Flying to Texas Commerce Bank Building Heliport? Find the distance to fly.

From to 3TE2

Sunrise and sunset
Times for 28-Jul-2017
 Local
(UTC-5)
 Zulu
(UTC)
Morning civil twilight06:1311:13
Sunrise06:3911:39
Sunset20:1601:16
Evening civil twilight20:4201:42

Current date and time
Zulu (UTC)  28-Jul-2017 09:06:23
Local (UTC-5)  28-Jul-2017 04:06:23
 
METAR
KHOU 
9nm SE 
280853Z 20003KT 10SM CLR 27/24 A2995 RMK AO2 SLP146 T02670239 56003
KEFD 
14nm SE 
280750Z 21004KT 10SM FEW250 27/24 A2997
KIAH 
14nm N 
280853Z 00000KT 10SM FEW016 FEW250 27/24 A2996 RMK AO2 SLP144 T02670244 55000
KLVJ 
16nm S 
280853Z AUTO 00000KT 9SM CLR 26/23 A2997 RMK AO2 SLP147 T02610233 55001
KAXH 
16nm S 
280855Z AUTO 00000KT 1 1/4SM BR VV007 23/23 A2997 RMK AO2 VIS 3/4V4 T02320226
KSGR 
17nm SW 
280853Z AUTO 00000KT 10SM CLR 25/24 A2995 RMK AO2 SLP142 T02500244 56005
TAF
KHOU 
9nm SE 
280520Z 2806/2906 19007KT P6SM FEW250 FM281500 22008KT P6SM FEW025 SCT250 FM282100 19008KT P6SM VCTS SCT060CB FM290000 19007KT P6SM FEW250
KEFD 
14nm SE 
280400Z 2804/2910 20003KT 9999 FEW060 QNH2996INS BECMG 2808/2809 VRB03KT 9999 FEW010 QNH2995INS BECMG 2814/2815 VRB06KT 9999 FEW050 QNH2984INS BECMG 2908/2909 23003KT 9999 FEW010 QNH2988INS TX36/2821Z TN26/2812Z
KIAH 
14nm N 
280520Z 2806/2912 19006KT P6SM SKC FM281500 24007KT P6SM FEW025 SCT250 FM282000 16008KT P6SM FEW060 SCT250 FM282200 21006KT P6SM VCSH SCT060 FM290100 18006KT P6SM FEW250
KSGR 
17nm SW 
280520Z 2806/2906 19007KT P6SM SKC FM281000 VRB02KT 6SM BR FEW025 FM281400 21006KT P6SM FEW025 SCT250 FM281700 18008KT P6SM FEW050 FM290300 19007KT P6SM SKC
NOTAMs
Click for the latest NOTAMs
NOTAMs are issued by the DoD/FAA and will open in a separate window not controlled by AirNav.

 

 
 

Would you like to see your business listed on this page?

 If your business provides an interesting product or service to pilots, flight crews, aircraft, or users of the Texas Commerce Bank Building Heliport, you should consider listing it here.  To start the listing process, click on the button below
 
Add a business
 

Other Pages about Texas Commerce Bank Building Heliport

Update a link
 
Copyright © AirNav, LLC. All rights reserved. Privacy Policy  Contact